Weather

Partly Cloudy
Wednesday 02/20 0%
Partly Cloudy
Partly cloudy skies. High 41F. Winds W at 5 to 10 mph.
Partly Cloudy
Thursday 02/21 10%
Partly Cloudy
Mostly cloudy with gusty winds developing. High 47F. Winds S at 20 to 30 mph. Winds could occasionally gust over 40 mph.
Snow
Friday 02/22 70%
Snow
Cloudy with rain and snow. High 46F. Winds SSW at 15 to 25 mph. Chance of rain 70%. Snow accumulations less than one inch. Winds could occasionally gust over 40 mph.
Clear
Saturday 02/23 0%
Clear
Mainly sunny. High 43F. Winds WNW at 10 to 15 mph.
Partly Cloudy
Sunday 02/24 0%
Partly Cloudy
Intervals of clouds and sunshine in the morning with more clouds for later in the day. High 47F. Winds light and variable.

 

 

For a detailed forecast click the banner below.

ballooncastlogo

 

 

Available data for KABQ from the past 2 hours
ALBUQUERQUE, NM
Metar
KABQ 201652Z 26008KT 10SM FEW040 SCT044 M01/M12 A2991 RMK AO2 SLP143 MTN TOPS OBSC NE AND SE T10111122

16:52 UTC

Wind: 260° 8kt

Visibility: 10 SM

Sky: FEW 4000 ft

Temp: -1 deg C / 30.2 deg F

Dewpoint: -12 deg C / 10.4 deg F

Pressure: 29.91 inHg

TAF
KABQ 201128Z 2012/2112 24006KT P6SM BKN040 FM201700 25011KT P6SM SCT120 FM210300 15009KT P6SM BKN120 FM211000 14006KT P6SM BKN080
Pirep (1)
ABQ UA /OV ABQ/TM 1703/FL360/TP B737/TB CONT LGT CHOP/RM ZAG/FDCS